createdAt,value
2017-06-18T00:01:59.291Z,17.50
2017-06-18T00:04:26.806Z,17.50
2017-06-18T00:06:54.317Z,17.40
2017-06-18T00:09:21.886Z,17.60
2017-06-18T00:11:49.385Z,17.50
2017-06-18T00:14:16.885Z,17.50
2017-06-18T00:16:44.415Z,17.50
2017-06-18T00:19:11.923Z,17.40
2017-06-18T00:21:39.415Z,17.30
2017-06-18T00:24:06.932Z,17.30
2017-06-18T00:26:34.436Z,17.20
2017-06-18T00:29:01.953Z,17.30
2017-06-18T00:31:29.461Z,17.20
2017-06-18T00:33:56.976Z,17.20
2017-06-18T00:36:24.490Z,17.40
2017-06-18T00:38:52.001Z,17.30
2017-06-18T00:41:19.517Z,17.40
2017-06-18T00:43:47.012Z,17.30
2017-06-18T00:46:14.518Z,17.10
2017-06-18T00:48:42.020Z,17.00
2017-06-18T00:51:09.520Z,17.10
2017-06-18T00:53:37.052Z,17.10
2017-06-18T00:56:04.559Z,17.10
2017-06-18T00:58:32.073Z,17.10
2017-06-18T01:00:59.605Z,17.10
2017-06-18T01:03:27.887Z,17.10
2017-06-18T01:05:56.185Z,17.20
2017-06-18T01:08:23.675Z,17.20
2017-06-18T01:10:51.169Z,17.10
2017-06-18T01:13:19.444Z,16.70
2017-06-18T01:15:47.712Z,16.70
2017-06-18T01:18:15.241Z,16.60
2017-06-18T01:20:42.769Z,16.70
2017-06-18T01:23:10.262Z,16.80
2017-06-18T01:25:37.771Z,16.60
2017-06-18T01:28:05.259Z,16.50
2017-06-18T01:30:32.796Z,16.70
2017-06-18T01:33:00.298Z,16.60
2017-06-18T01:35:27.788Z,16.70
2017-06-18T01:37:55.302Z,16.50
2017-06-18T01:40:22.814Z,16.60
2017-06-18T01:42:51.516Z,16.70
2017-06-18T01:45:19.016Z,16.70
2017-06-18T01:47:46.508Z,16.70
2017-06-18T01:50:14.026Z,16.70
2017-06-18T01:52:41.537Z,16.60
2017-06-18T01:55:09.834Z,16.60
2017-06-18T01:57:37.324Z,16.60
2017-06-18T02:00:04.860Z,16.70
2017-06-18T02:02:32.392Z,16.50
2017-06-18T02:04:59.888Z,16.50
2017-06-18T02:07:27.411Z,16.40
2017-06-18T02:09:55.680Z,16.50
2017-06-18T02:12:23.168Z,16.50
2017-06-18T02:14:50.678Z,16.60
2017-06-18T02:17:18.175Z,16.70
2017-06-18T02:19:45.696Z,16.50
2017-06-18T02:22:13.192Z,16.60
2017-06-18T02:24:41.468Z,16.50
2017-06-18T02:27:08.980Z,16.50
2017-06-18T02:29:36.471Z,16.50
2017-06-18T02:32:04.001Z,16.50
2017-06-18T02:34:31.506Z,16.40
2017-06-18T02:36:59.000Z,15.90
2017-06-18T02:39:26.508Z,16.10
2017-06-18T02:41:53.997Z,16.20
2017-06-18T02:44:21.522Z,15.50
2017-06-18T02:46:49.022Z,15.30
2017-06-18T02:49:16.569Z,15.20
2017-06-18T02:51:44.072Z,15.30
2017-06-18T02:54:11.577Z,15.60
2017-06-18T02:56:39.088Z,15.50
2017-06-18T02:59:06.576Z,15.60
2017-06-18T03:01:34.072Z,15.40
2017-06-18T03:04:01.589Z,15.30
2017-06-18T03:06:29.085Z,15.40
2017-06-18T03:08:56.603Z,15.50
2017-06-18T03:11:24.100Z,15.20
2017-06-18T03:13:51.600Z,15.10
2017-06-18T03:16:19.108Z,15.20
2017-06-18T03:19:16.076Z,15.00
2017-06-18T03:21:49.183Z,15.10
2017-06-18T03:24:20.155Z,15.20
2017-06-18T03:26:47.643Z,15.20
2017-06-18T03:29:15.156Z,15.20
2017-06-18T03:31:42.656Z,15.20
2017-06-18T03:34:10.947Z,15.00
2017-06-18T03:36:38.445Z,15.00
2017-06-18T03:39:05.937Z,15.30
2017-06-18T03:41:33.447Z,15.30
2017-06-18T03:44:00.943Z,15.30
2017-06-18T03:46:28.465Z,15.40
2017-06-18T03:48:55.960Z,15.10
2017-06-18T03:51:23.446Z,15.20
2017-06-18T03:53:51.725Z,15.40
2017-06-18T03:56:19.224Z,15.40
2017-06-18T03:58:46.741Z,15.60
2017-06-18T04:01:14.234Z,15.70
2017-06-18T04:03:41.732Z,15.80
2017-06-18T04:06:09.248Z,15.90
2017-06-18T04:08:36.737Z,15.90
2017-06-18T04:11:04.263Z,15.90
2017-06-18T04:13:31.752Z,15.90
2017-06-18T04:15:59.254Z,16.20
2017-06-18T04:18:27.540Z,16.50
2017-06-18T04:20:55.799Z,16.50
2017-06-18T04:23:23.321Z,16.50
2017-06-18T04:25:50.850Z,16.70
2017-06-18T04:28:18.351Z,16.60
2017-06-18T04:30:45.852Z,16.40
2017-06-18T04:33:13.344Z,16.20
2017-06-18T04:35:40.860Z,16.40
2017-06-18T04:38:08.361Z,16.50
2017-06-18T04:40:35.863Z,16.80
2017-06-18T04:43:03.491Z,16.70
2017-06-18T04:45:30.994Z,16.60
2017-06-18T04:47:58.522Z,16.90
2017-06-18T04:50:26.015Z,17.00
2017-06-18T04:52:53.532Z,17.00
2017-06-18T04:55:21.063Z,17.40
2017-06-18T04:57:48.560Z,17.50
2017-06-18T05:00:16.079Z,17.50
2017-06-18T05:02:43.569Z,17.60
2017-06-18T05:05:11.057Z,17.30
2017-06-18T05:07:38.563Z,17.50
2017-06-18T05:10:06.050Z,17.40
2017-06-18T05:12:33.575Z,17.50
2017-06-18T05:15:01.065Z,17.20
2017-06-18T05:17:28.563Z,17.20
2017-06-18T05:19:56.074Z,17.50
2017-06-18T05:22:23.596Z,17.70
2017-06-18T05:24:51.140Z,17.80
2017-06-18T05:27:18.635Z,17.70
2017-06-18T05:29:46.137Z,17.60
2017-06-18T05:32:13.651Z,18.10
2017-06-18T05:34:41.157Z,18.00
2017-06-18T05:37:08.683Z,18.00
2017-06-18T05:39:36.186Z,17.90
2017-06-18T05:42:03.820Z,18.10
2017-06-18T05:44:31.333Z,18.40
2017-06-18T05:46:58.832Z,18.30
2017-06-18T05:49:26.366Z,18.00
2017-06-18T05:51:53.862Z,18.20
2017-06-18T05:54:21.359Z,18.30
2017-06-18T05:56:48.864Z,18.60
2017-06-18T05:59:16.365Z,18.70
2017-06-18T06:01:43.880Z,18.60
2017-06-18T06:04:11.411Z,18.70
2017-06-18T06:06:39.680Z,18.90
2017-06-18T06:09:07.190Z,18.90
2017-06-18T06:11:34.689Z,18.50
2017-06-18T06:14:02.213Z,19.00
2017-06-18T06:16:29.711Z,19.10
2017-06-18T06:18:57.204Z,19.40
2017-06-18T06:21:24.717Z,19.40
2017-06-18T06:23:52.232Z,18.80
2017-06-18T06:26:19.761Z,18.70
2017-06-18T06:28:48.029Z,18.80
2017-06-18T06:31:15.519Z,18.80
2017-06-18T06:33:43.019Z,19.20
2017-06-18T06:36:10.520Z,19.50
2017-06-18T06:38:38.051Z,19.50
2017-06-18T06:41:05.560Z,19.60
2017-06-18T06:43:33.062Z,19.50
2017-06-18T06:46:01.478Z,19.80
2017-06-18T06:48:29.741Z,19.90
2017-06-18T06:50:57.254Z,19.90
2017-06-18T06:53:24.769Z,20.20
2017-06-18T06:55:53.034Z,20.20
2017-06-18T06:58:20.540Z,20.20
2017-06-18T07:00:48.060Z,20.50
2017-06-18T07:03:15.580Z,20.30
2017-06-18T07:05:43.080Z,20.40
2017-06-18T07:08:10.602Z,20.00
2017-06-18T07:10:38.123Z,20.30
2017-06-18T07:13:05.620Z,20.20
2017-06-18T07:27:57.430Z,21.20
2017-06-18T07:30:24.953Z,21.00
2017-06-18T07:32:52.467Z,21.10
2017-06-18T07:35:19.961Z,21.50
2017-06-18T07:37:47.472Z,21.40
2017-06-18T07:40:14.962Z,21.00
2017-06-18T07:42:43.246Z,21.80
2017-06-18T07:45:10.755Z,21.80
2017-06-18T07:47:38.248Z,21.90
2017-06-18T07:50:05.749Z,22.10
2017-06-18T07:52:33.260Z,22.30
2017-06-18T07:55:00.787Z,22.30
2017-06-18T07:57:28.284Z,22.90
2017-06-18T07:59:55.846Z,22.70
2017-06-18T08:02:23.364Z,22.60
2017-06-18T08:04:50.861Z,22.70
2017-06-18T08:07:18.383Z,22.80
2017-06-18T08:09:45.882Z,21.80
2017-06-18T08:12:13.376Z,22.20
2017-06-18T08:14:40.892Z,23.00
2017-06-18T08:17:08.385Z,22.80
2017-06-18T08:19:35.937Z,22.50
2017-06-18T08:22:03.437Z,22.00
2017-06-18T08:24:30.957Z,23.10
2017-06-18T08:26:58.485Z,22.70
2017-06-18T08:29:25.988Z,22.80
2017-06-18T08:31:53.517Z,22.70
2017-06-18T08:34:21.016Z,22.70
2017-06-18T08:36:48.521Z,22.60
2017-06-18T08:39:16.043Z,22.90
2017-06-18T08:41:43.537Z,23.30
2017-06-18T08:44:11.049Z,23.00
2017-06-18T08:46:38.553Z,22.60
2017-06-18T08:49:06.068Z,22.10
2017-06-18T08:51:33.581Z,22.60
2017-06-18T08:54:01.092Z,23.30
2017-06-18T08:56:28.617Z,23.10
2017-06-18T08:58:56.159Z,23.80
2017-06-18T09:01:23.660Z,23.40
2017-06-18T09:03:51.195Z,23.10
2017-06-18T09:06:18.691Z,23.40
2017-06-18T09:08:46.231Z,23.80
2017-06-18T09:11:13.729Z,23.90
2017-06-18T09:13:41.229Z,23.50
2017-06-18T09:16:08.752Z,24.20
2017-06-18T09:18:36.282Z,23.80
2017-06-18T09:21:03.829Z,23.20
2017-06-18T09:23:32.101Z,23.90
2017-06-18T09:25:59.612Z,23.90
2017-06-18T09:28:27.144Z,24.00
2017-06-18T09:30:54.661Z,24.90
2017-06-18T09:33:22.972Z,24.20
2017-06-18T09:35:50.477Z,24.10
2017-06-18T09:38:17.993Z,24.50
2017-06-18T09:40:45.501Z,24.50
2017-06-18T09:43:13.009Z,24.40
2017-06-18T09:45:40.537Z,24.30
2017-06-18T09:48:08.812Z,24.20
2017-06-18T09:50:36.321Z,24.20
2017-06-18T09:53:03.853Z,24.50
2017-06-18T09:55:31.349Z,24.70
2017-06-18T09:57:58.876Z,24.00
2017-06-18T10:00:26.385Z,24.90
2017-06-18T10:02:53.891Z,24.70
2017-06-18T10:05:21.416Z,25.30
2017-06-18T10:07:48.910Z,25.40
2017-06-18T10:10:16.440Z,25.20
2017-06-18T10:12:43.936Z,23.80
2017-06-18T10:15:12.590Z,24.90
2017-06-18T10:17:40.112Z,25.80
2017-06-18T10:20:07.629Z,25.60
2017-06-18T10:22:35.132Z,24.90
2017-06-18T10:25:02.644Z,24.90
2017-06-18T10:27:30.941Z,24.30
2017-06-18T10:29:58.457Z,24.30
2017-06-18T10:32:25.948Z,24.80
2017-06-18T10:34:53.460Z,25.80
2017-06-18T10:37:20.952Z,26.00
2017-06-18T10:39:48.481Z,25.20
2017-06-18T10:42:15.993Z,26.00
2017-06-18T10:44:43.492Z,25.50
2017-06-18T10:47:11.009Z,26.00
2017-06-18T10:49:38.524Z,26.10
2017-06-18T10:52:06.056Z,26.70
2017-06-18T10:54:33.548Z,26.80
2017-06-18T10:57:01.061Z,26.30
2017-06-18T10:59:28.572Z,26.30
2017-06-18T11:01:56.074Z,27.40
2017-06-18T11:04:23.885Z,26.50
2017-06-18T11:06:51.388Z,27.20
2017-06-18T11:09:18.885Z,27.00
2017-06-18T11:11:46.400Z,27.10
2017-06-18T11:14:13.908Z,27.10
2017-06-18T11:16:41.445Z,27.00
2017-06-18T11:19:08.933Z,26.80
2017-06-18T11:21:36.441Z,26.80
2017-06-18T11:24:03.972Z,26.30
2017-06-18T11:26:31.472Z,25.90
2017-06-18T11:28:58.996Z,26.90
2017-06-18T11:31:26.500Z,27.30
2017-06-18T11:33:54.020Z,27.20
2017-06-18T11:36:22.287Z,27.30
2017-06-18T11:38:49.778Z,27.20
2017-06-18T11:41:17.300Z,27.30
2017-06-18T11:43:44.847Z,26.90
2017-06-18T11:46:12.370Z,26.80
2017-06-18T11:48:39.876Z,27.00
2017-06-18T11:51:07.384Z,28.00
2017-06-18T11:53:34.913Z,27.00
2017-06-18T11:56:03.190Z,27.50
2017-06-18T11:58:31.457Z,27.20
2017-06-18T12:00:58.974Z,27.20
2017-06-18T12:03:26.470Z,27.70
2017-06-18T12:05:54.020Z,27.50
2017-06-18T12:08:21.517Z,26.70
2017-06-18T12:10:49.037Z,27.90
2017-06-18T12:13:16.555Z,27.60
2017-06-18T12:15:44.048Z,27.70
2017-06-18T12:18:11.606Z,27.40
2017-06-18T12:20:39.109Z,27.10
2017-06-18T12:23:07.402Z,26.50
2017-06-18T12:25:34.927Z,26.50
2017-06-18T12:28:02.437Z,27.10
2017-06-18T12:30:29.954Z,27.10
2017-06-18T12:32:57.450Z,27.10
2017-06-18T12:35:25.024Z,27.40
2017-06-18T12:37:52.542Z,27.30
2017-06-18T12:40:20.046Z,28.70
2017-06-18T12:42:47.546Z,28.80
2017-06-18T12:45:15.079Z,28.70
2017-06-18T12:47:42.610Z,27.20
2017-06-18T12:50:10.113Z,27.10
2017-06-18T12:52:37.627Z,27.30
2017-06-18T12:55:05.141Z,27.60
2017-06-18T12:57:32.669Z,28.20
2017-06-18T13:00:00.164Z,28.80
2017-06-18T13:02:27.663Z,28.80
2017-06-18T13:04:55.189Z,28.10
2017-06-18T13:07:22.688Z,28.20
2017-06-18T13:09:50.230Z,27.70
2017-06-18T13:12:17.741Z,28.30
2017-06-18T13:14:45.259Z,28.60
2017-06-18T13:17:12.826Z,28.90
2017-06-18T13:19:40.338Z,28.60
2017-06-18T13:22:08.746Z,28.80
2017-06-18T13:24:36.282Z,28.80
2017-06-18T13:27:04.552Z,27.80
2017-06-18T13:29:32.077Z,27.80
2017-06-18T13:31:59.589Z,27.60
2017-06-18T13:34:27.125Z,28.70
2017-06-18T13:36:54.616Z,28.30
2017-06-18T13:39:22.107Z,28.50
2017-06-18T13:41:49.619Z,28.40
2017-06-18T13:44:18.167Z,28.60
2017-06-18T13:46:45.693Z,28.60
2017-06-18T13:49:13.202Z,28.40
2017-06-18T13:51:40.710Z,28.80
2017-06-18T13:54:08.240Z,27.80
2017-06-18T13:56:35.747Z,27.80
2017-06-18T13:59:03.288Z,27.90
2017-06-18T14:01:30.785Z,28.30
2017-06-18T14:03:58.303Z,28.20
2017-06-18T14:06:25.840Z,28.40
2017-06-18T14:08:54.116Z,27.80
2017-06-18T14:11:22.409Z,28.00
2017-06-18T14:13:49.909Z,28.00
2017-06-18T14:16:17.413Z,28.80
2017-06-18T14:18:45.041Z,28.90
2017-06-18T14:21:12.542Z,28.40
2017-06-18T14:23:40.063Z,27.90
2017-06-18T14:26:07.566Z,28.60
2017-06-18T14:28:35.083Z,28.30
2017-06-18T14:31:02.612Z,27.90
2017-06-18T14:33:30.137Z,28.80
2017-06-18T14:35:57.917Z,28.20
2017-06-18T14:38:25.426Z,28.60
2017-06-18T14:40:52.944Z,28.70
2017-06-18T14:43:20.469Z,28.60
2017-06-18T14:45:47.985Z,28.60
2017-06-18T14:48:15.536Z,28.50
2017-06-18T14:50:43.068Z,28.30
2017-06-18T14:53:10.576Z,28.40
2017-06-18T14:55:38.094Z,28.40
2017-06-18T14:58:05.595Z,28.30
2017-06-18T15:00:33.420Z,28.50
2017-06-18T15:03:00.934Z,27.90
2017-06-18T15:05:28.460Z,28.20
2017-06-18T15:07:55.974Z,27.70
2017-06-18T15:10:24.253Z,27.50
2017-06-18T15:12:52.563Z,27.90
2017-06-18T15:15:20.085Z,27.90
2017-06-18T15:17:48.368Z,27.30
2017-06-18T15:20:15.876Z,27.30
2017-06-18T15:22:43.404Z,27.70
2017-06-18T15:25:10.966Z,27.60
2017-06-18T15:27:38.460Z,27.90
2017-06-18T15:30:05.978Z,27.30
2017-06-18T15:32:33.500Z,27.80
2017-06-18T15:35:01.008Z,28.10
2017-06-18T15:37:28.789Z,27.60
2017-06-18T15:39:56.292Z,27.80
2017-06-18T15:42:23.812Z,28.00
2017-06-18T15:44:51.342Z,27.30
2017-06-18T15:47:18.842Z,26.90
2017-06-18T15:49:46.389Z,27.10
2017-06-18T15:52:13.889Z,27.70
2017-06-18T15:54:41.413Z,27.80
2017-06-18T15:57:08.985Z,27.50
2017-06-18T15:59:36.493Z,27.40
2017-06-18T16:02:04.786Z,27.30
2017-06-18T16:04:32.296Z,27.30
2017-06-18T16:06:59.821Z,27.10
2017-06-18T16:09:27.353Z,27.40
2017-06-18T16:11:54.869Z,27.90
2017-06-18T16:14:22.380Z,27.40
2017-06-18T16:16:50.211Z,27.30
2017-06-18T16:19:19.168Z,27.20
2017-06-18T16:21:46.686Z,27.20
2017-06-18T16:24:15.005Z,27.20
2017-06-18T16:26:42.502Z,27.10
2017-06-18T16:29:10.893Z,27.10
2017-06-18T16:31:39.202Z,27.00
2017-06-18T16:34:06.703Z,27.00
2017-06-18T16:36:34.210Z,27.20
2017-06-18T16:39:01.757Z,27.10
2017-06-18T16:41:30.047Z,27.10
2017-06-18T16:43:57.549Z,27.00
2017-06-18T16:46:25.080Z,26.80
2017-06-18T16:48:52.601Z,27.00
2017-06-18T16:51:20.388Z,27.10
2017-06-18T16:53:47.893Z,27.10
2017-06-18T16:56:15.407Z,27.20
2017-06-18T16:58:42.941Z,26.80
2017-06-18T17:01:11.334Z,26.60
2017-06-18T17:03:39.636Z,26.50
2017-06-18T17:06:07.157Z,26.50
2017-06-18T17:08:34.697Z,26.50
2017-06-18T17:11:02.221Z,26.80
2017-06-18T17:13:29.719Z,26.80
2017-06-18T17:15:57.265Z,26.80
2017-06-18T17:18:24.785Z,26.80
2017-06-18T17:20:52.279Z,26.80
2017-06-18T17:23:19.802Z,27.00
2017-06-18T17:25:47.310Z,26.40
2017-06-18T17:28:15.094Z,26.30
2017-06-18T17:30:42.624Z,26.40
2017-06-18T17:33:10.138Z,26.10
2017-06-18T17:35:37.664Z,26.20
2017-06-18T17:38:05.169Z,26.30
2017-06-18T17:40:32.692Z,26.20
2017-06-18T17:43:00.209Z,26.30
2017-06-18T17:45:27.738Z,26.30
2017-06-18T17:47:56.032Z,26.00
2017-06-18T17:50:23.541Z,26.00
2017-06-18T17:52:51.084Z,26.10
2017-06-18T17:55:18.592Z,25.90
2017-06-18T17:57:46.886Z,25.80
2017-06-18T18:00:14.413Z,25.80
2017-06-18T18:02:41.927Z,26.00
2017-06-18T18:05:09.450Z,26.00
2017-06-18T18:07:37.717Z,25.70
2017-06-18T18:10:05.235Z,25.70
2017-06-18T18:12:32.754Z,25.80
2017-06-18T18:15:00.248Z,25.80
2017-06-18T18:17:28.064Z,25.60
2017-06-18T18:19:56.485Z,25.50
2017-06-18T18:22:23.999Z,25.50
2017-06-18T18:24:51.508Z,25.50
2017-06-18T18:27:19.029Z,25.50
2017-06-18T18:29:47.640Z,25.70
2017-06-18T18:32:15.151Z,25.70
2017-06-18T18:34:42.650Z,25.60
2017-06-18T18:37:10.164Z,25.30
2017-06-18T18:39:37.677Z,25.20
2017-06-18T18:42:05.227Z,25.30
2017-06-18T18:44:32.751Z,25.10
2017-06-18T18:47:00.248Z,25.20
2017-06-18T18:49:27.781Z,25.10
2017-06-18T18:51:56.070Z,25.00
2017-06-18T18:54:23.596Z,25.00
2017-06-18T18:56:51.109Z,25.00
2017-06-18T18:59:18.629Z,25.10
2017-06-18T19:01:46.140Z,24.90
2017-06-18T19:04:13.659Z,24.90
2017-06-18T19:06:41.484Z,25.00
2017-06-18T19:09:09.018Z,24.90
2017-06-18T19:11:36.562Z,24.70
2017-06-18T19:14:04.079Z,24.70
2017-06-18T19:16:31.579Z,24.60
2017-06-18T19:18:59.107Z,24.70
2017-06-18T19:21:26.604Z,24.80
2017-06-18T19:23:54.112Z,24.70
2017-06-18T19:26:21.647Z,24.60
2017-06-18T19:28:49.167Z,24.60
2017-06-18T19:31:16.902Z,24.70
2017-06-18T19:33:44.432Z,24.60
2017-06-18T19:36:11.969Z,24.70
2017-06-18T19:38:39.486Z,24.70
2017-06-18T19:41:07.000Z,24.50
2017-06-18T19:43:34.875Z,24.50
2017-06-18T19:46:02.400Z,24.50
2017-06-18T19:48:29.920Z,24.50
2017-06-18T19:50:57.468Z,24.50
2017-06-18T19:53:24.982Z,24.40
2017-06-18T19:55:52.535Z,24.20
2017-06-18T19:58:20.080Z,24.10
2017-06-18T20:00:47.586Z,24.10
2017-06-18T20:03:15.107Z,23.90
2017-06-18T20:05:43.467Z,23.80
2017-06-18T20:08:11.265Z,23.80
2017-06-18T20:10:38.798Z,23.80
2017-06-18T20:13:06.303Z,23.80
2017-06-18T20:15:33.847Z,23.80
2017-06-18T20:18:01.365Z,23.80
2017-06-18T20:20:28.920Z,23.80
2017-06-18T20:22:56.464Z,23.80
2017-06-18T20:25:23.981Z,23.80
2017-06-18T20:27:52.285Z,23.80
2017-06-18T20:30:19.811Z,23.70
2017-06-18T20:32:50.069Z,23.70
2017-06-18T20:35:17.602Z,23.70
2017-06-18T20:37:45.896Z,23.70
2017-06-18T20:40:13.443Z,23.70
2017-06-18T20:42:40.956Z,23.40
2017-06-18T20:45:08.773Z,23.30
2017-06-18T20:47:36.309Z,23.50
2017-06-18T20:50:03.837Z,23.40
2017-06-18T20:52:31.383Z,23.60
2017-06-18T20:54:58.901Z,23.40
2017-06-18T20:57:26.456Z,23.40
2017-06-18T20:59:54.795Z,23.20
2017-06-18T21:02:22.323Z,23.10
2017-06-18T21:04:49.843Z,23.10
2017-06-18T21:07:17.339Z,23.20
2017-06-18T21:09:44.889Z,23.10
2017-06-18T21:12:12.392Z,23.00
2017-06-18T21:14:39.905Z,23.10
2017-06-18T21:17:07.428Z,23.00
2017-06-18T21:19:34.932Z,23.10
2017-06-18T21:22:02.481Z,22.90
2017-06-18T21:24:30.757Z,22.80
2017-06-18T21:26:58.267Z,22.80
2017-06-18T21:29:25.782Z,22.90
2017-06-18T21:31:53.288Z,23.00
2017-06-18T21:34:21.152Z,23.00
2017-06-18T21:36:48.659Z,23.10
2017-06-18T21:39:16.921Z,22.80
2017-06-18T21:41:44.469Z,22.90
2017-06-18T21:44:11.987Z,22.90
2017-06-18T21:46:39.536Z,22.90
2017-06-18T21:49:07.048Z,22.80
2017-06-18T21:51:34.560Z,22.80
2017-06-18T21:54:02.069Z,22.80
2017-06-18T21:56:29.581Z,22.60
2017-06-18T21:58:57.102Z,22.70
2017-06-18T22:01:25.672Z,22.60
2017-06-18T22:03:53.204Z,22.60
2017-06-18T22:06:20.722Z,22.60
2017-06-18T22:08:48.506Z,22.50
2017-06-18T22:11:16.017Z,22.60
2017-06-18T22:13:43.508Z,22.50
2017-06-18T22:16:11.055Z,22.50
2017-06-18T22:18:38.554Z,22.40
2017-06-18T22:21:06.352Z,22.40
2017-06-18T22:23:33.851Z,22.40
2017-06-18T22:26:01.359Z,22.40
2017-06-18T22:28:28.891Z,22.40
2017-06-18T22:30:56.405Z,22.40
2017-06-18T22:33:23.941Z,22.30
2017-06-18T22:35:51.467Z,22.10
2017-06-18T22:38:18.983Z,22.20
2017-06-18T22:40:46.512Z,22.20
2017-06-18T22:43:14.032Z,22.10
2017-06-18T22:45:42.356Z,22.00
2017-06-18T22:48:09.863Z,22.00
2017-06-18T22:50:37.371Z,21.90
2017-06-18T22:53:05.813Z,21.90
2017-06-18T22:55:33.334Z,21.90
2017-06-18T22:58:00.861Z,21.90
2017-06-18T23:00:28.356Z,21.90
2017-06-18T23:02:55.865Z,21.80
2017-06-18T23:05:23.444Z,21.80
2017-06-18T23:07:50.964Z,21.70
2017-06-18T23:10:19.284Z,21.90
2017-06-18T23:12:46.781Z,21.90
2017-06-18T23:15:15.125Z,21.70
2017-06-18T23:17:42.640Z,21.60
2017-06-18T23:20:10.145Z,21.50
2017-06-18T23:22:37.680Z,21.60
2017-06-18T23:25:05.169Z,21.50
2017-06-18T23:27:32.676Z,21.30
2017-06-18T23:30:00.214Z,21.30
2017-06-18T23:32:27.734Z,21.20
2017-06-18T23:34:55.311Z,21.20
2017-06-18T23:37:22.812Z,21.20
2017-06-18T23:39:51.188Z,21.30
2017-06-18T23:42:19.461Z,21.30
2017-06-18T23:44:47.728Z,21.20
2017-06-18T23:47:15.277Z,21.20
2017-06-18T23:49:42.776Z,21.30
2017-06-18T23:52:10.272Z,21.10
2017-06-18T23:54:37.793Z,21.00
2017-06-18T23:57:05.306Z,21.10
2017-06-18T23:59:33.088Z,21.10
